sensor_id;sensor_type;location;lat;lon;timestamp;pressure;altitude;pressure_sealevel;temperature;humidity
12624;BME280;6377;42.836;23.998;2023-04-01T08:24:25;94286.84;;;17.40;38.30
12624;BME280;6377;42.836;23.998;2023-04-01T08:26:58;94300.38;;;17.55;36.80
12624;BME280;6377;42.836;23.998;2023-04-01T08:29:31;94214.06;;;17.01;37.58
12624;BME280;6377;42.836;23.998;2023-04-01T08:32:06;94236.91;;;17.14;37.15
12624;BME280;6377;42.836;23.998;2023-04-01T08:34:37;94247.16;;;17.27;38.08
12624;BME280;6377;42.836;23.998;2023-04-01T08:37:09;94254.97;;;17.33;38.27
12624;BME280;6377;42.836;23.998;2023-04-01T08:39:43;94263.63;;;17.46;36.63
12624;BME280;6377;42.836;23.998;2023-04-01T08:42:47;94257.97;;;17.37;36.27
12624;BME280;6377;42.836;23.998;2023-04-01T08:45:54;94258.09;;;17.52;36.38
12624;BME280;6377;42.836;23.998;2023-04-01T08:48:57;94263.94;;;17.81;35.95
12624;BME280;6377;42.836;23.998;2023-04-01T08:51:48;94269.66;;;18.00;36.52
12624;BME280;6377;42.836;23.998;2023-04-01T08:54:37;94231.19;;;18.06;35.45
12624;BME280;6377;42.836;23.998;2023-04-01T08:57:15;94232.56;;;18.08;35.20
12624;BME280;6377;42.836;23.998;2023-04-01T08:59:57;94224.56;;;18.18;34.78
12624;BME280;6377;42.836;23.998;2023-04-01T09:02:56;94226.59;;;18.48;34.85
12624;BME280;6377;42.836;23.998;2023-04-01T09:08:48;94216.59;;;19.00;32.70
12624;BME280;6377;42.836;23.998;2023-04-01T09:11:30;94228.41;;;19.30;32.45
12624;BME280;6377;42.836;23.998;2023-04-01T09:14:19;94238.91;;;19.46;32.42
12624;BME280;6377;42.836;23.998;2023-04-01T09:17:26;94216.13;;;19.39;32.86
12624;BME280;6377;42.836;23.998;2023-04-01T09:20:27;94124.44;;;19.22;32.28
12624;BME280;6377;42.836;23.998;2023-04-01T09:23:13;94190.03;;;20.00;31.35
12624;BME280;6377;42.836;23.998;2023-04-01T09:25:53;94217.53;;;20.56;31.55
12624;BME280;6377;42.836;23.998;2023-04-01T09:28:33;94229.09;;;20.56;30.38
12624;BME280;6377;42.836;23.998;2023-04-01T09:31:20;94213.06;;;20.26;31.12
12624;BME280;6377;42.836;23.998;2023-04-01T09:34:24;94199.94;;;20.09;30.99
12624;BME280;6377;42.836;23.998;2023-04-01T09:37:02;94132.72;;;19.61;31.25
12624;BME280;6377;42.836;23.998;2023-04-01T09:39:37;94210.72;;;19.79;31.90
12624;BME280;6377;42.836;23.998;2023-04-01T09:42:41;94212.06;;;19.82;32.11
12624;BME280;6377;42.836;23.998;2023-04-01T09:45:20;94220.94;;;19.62;31.77
12624;BME280;6377;42.836;23.998;2023-04-01T09:48:05;94214.78;;;19.41;31.77
12624;BME280;6377;42.836;23.998;2023-04-01T09:50:45;94214.72;;;19.06;31.88
12624;BME280;6377;42.836;23.998;2023-04-01T09:53:28;94072.75;;;17.93;32.08
12624;BME280;6377;42.836;23.998;2023-04-01T09:56:19;94027.66;;;17.50;32.71
12624;BME280;6377;42.836;23.998;2023-04-01T09:59:21;94213.00;;;18.65;33.08
12624;BME280;6377;42.836;23.998;2023-04-01T10:05:27;94190.25;;;18.57;34.18
12624;BME280;6377;42.836;23.998;2023-04-01T10:08:22;94178.63;;;18.41;33.27
12624;BME280;6377;42.836;23.998;2023-04-01T10:11:23;94165.25;;;18.31;33.30
12624;BME280;6377;42.836;23.998;2023-04-01T10:14:15;94197.38;;;18.41;33.14
12624;BME280;6377;42.836;23.998;2023-04-01T10:20:25;94153.38;;;18.12;33.77
12624;BME280;6377;42.836;23.998;2023-04-01T10:23:13;94187.75;;;18.45;33.94
12624;BME280;6377;42.836;23.998;2023-04-01T10:26:09;94125.28;;;18.10;33.40
12624;BME280;6377;42.836;23.998;2023-04-01T10:31:53;94145.66;;;18.21;33.80
12624;BME280;6377;42.836;23.998;2023-04-01T10:34:54;94167.91;;;18.36;34.09
12624;BME280;6377;42.836;23.998;2023-04-01T10:40:53;94137.91;;;18.29;34.60
12624;BME280;6377;42.836;23.998;2023-04-01T10:44:03;94163.09;;;18.43;34.85
12624;BME280;6377;42.836;23.998;2023-04-01T10:50:13;94054.53;;;17.80;34.90
12624;BME280;6377;42.836;23.998;2023-04-01T10:58:53;94074.97;;;18.02;35.04
12624;BME280;6377;42.836;23.998;2023-04-01T11:01:51;94120.50;;;18.22;34.78
12624;BME280;6377;42.836;23.998;2023-04-01T11:04:59;94059.09;;;17.85;34.56
12624;BME280;6377;42.836;23.998;2023-04-01T11:11:12;94084.31;;;18.04;34.76
12624;BME280;6377;42.836;23.998;2023-04-01T11:14:24;94116.53;;;18.34;34.50
12624;BME280;6377;42.836;23.998;2023-04-01T11:17:15;94062.13;;;18.04;34.48
12624;BME280;6377;42.836;23.998;2023-04-01T11:20:13;94061.31;;;18.03;34.49
12624;BME280;6377;42.836;23.998;2023-04-01T11:23:10;94098.84;;;18.33;34.50
12624;BME280;6377;42.836;23.998;2023-04-01T11:25:55;94049.56;;;18.09;34.83
12624;BME280;6377;42.836;23.998;2023-04-01T11:28:58;94098.94;;;18.49;34.90
12624;BME280;6377;42.836;23.998;2023-04-01T11:31:37;94027.91;;;18.21;35.31
12624;BME280;6377;42.836;23.998;2023-04-01T11:34:17;94062.19;;;18.44;34.78
12624;BME280;6377;42.836;23.998;2023-04-01T11:36:56;94067.03;;;18.37;35.49
12624;BME280;6377;42.836;23.998;2023-04-01T11:39:33;93996.81;;;17.95;34.90
12624;BME280;6377;42.836;23.998;2023-04-01T11:42:14;94022.28;;;18.12;35.44
12624;BME280;6377;42.836;23.998;2023-04-01T11:44:53;93996.03;;;18.04;35.73
12624;BME280;6377;42.836;23.998;2023-04-01T11:47:48;94036.47;;;18.13;38.71
12624;BME280;6377;42.836;23.998;2023-04-01T11:50:25;94016.06;;;17.97;40.11
12624;BME280;6377;42.836;23.998;2023-04-01T11:53:05;94059.44;;;17.99;40.34
12624;BME280;6377;42.836;23.998;2023-04-01T11:55:46;94033.91;;;17.66;40.88
12624;BME280;6377;42.836;23.998;2023-04-01T12:01:30;93950.19;;;16.98;41.19
12624;BME280;6377;42.836;23.998;2023-04-01T12:07:17;94060.53;;;17.51;41.71
12624;BME280;6377;42.836;23.998;2023-04-01T12:09:52;93956.66;;;16.65;42.16
12624;BME280;6377;42.836;23.998;2023-04-01T12:12:29;94056.78;;;17.05;43.88
12624;BME280;6377;42.836;23.998;2023-04-01T12:15:12;94085.78;;;17.23;44.84
12624;BME280;6377;42.836;23.998;2023-04-01T12:17:48;93924.56;;;15.92;46.43
12624;BME280;6377;42.836;23.998;2023-04-01T12:20:35;94135.25;;;16.94;50.60
12624;BME280;6377;42.836;23.998;2023-04-01T12:23:15;94146.22;;;16.70;51.49
12624;BME280;6377;42.836;23.998;2023-04-01T12:25:58;94153.69;;;16.20;57.95
12624;BME280;6377;42.836;23.998;2023-04-01T12:28:39;94163.13;;;15.67;58.90
12624;BME280;6377;42.836;23.998;2023-04-01T12:31:19;94134.88;;;15.11;68.98
12624;BME280;6377;42.836;23.998;2023-04-01T12:34:04;94214.84;;;15.33;79.28
12624;BME280;6377;42.836;23.998;2023-04-01T12:36:52;94301.44;;;15.36;94.60
12624;BME280;6377;42.836;23.998;2023-04-01T12:39:33;94199.22;;;13.44;100.00
12624;BME280;6377;42.836;23.998;2023-04-01T12:42:11;94128.78;;;12.54;100.00
12624;BME280;6377;42.836;23.998;2023-04-01T12:44:54;94158.84;;;12.36;100.00
12624;BME280;6377;42.836;23.998;2023-04-01T12:50:34;94289.88;;;12.28;100.00
12624;BME280;6377;42.836;23.998;2023-04-01T12:53:18;94396.44;;;12.73;100.00
12624;BME280;6377;42.836;23.998;2023-04-01T12:56:04;94297.47;;;11.89;100.00
12624;BME280;6377;42.836;23.998;2023-04-01T12:59:02;94348.63;;;12.25;100.00
12624;BME280;6377;42.836;23.998;2023-04-01T13:04:32;94319.09;;;12.04;100.00
12624;BME280;6377;42.836;23.998;2023-04-01T13:07:36;94398.97;;;12.80;100.00
12624;BME280;6377;42.836;23.998;2023-04-01T13:10:20;94187.25;;;11.63;100.00
12624;BME280;6377;42.836;23.998;2023-04-01T13:15:39;94371.63;;;12.98;100.00
12624;BME280;6377;42.836;23.998;2023-04-01T13:18:20;94352.50;;;13.37;100.00
12624;BME280;6377;42.836;23.998;2023-04-01T13:20:54;94174.03;;;12.29;100.00
12624;BME280;6377;42.836;23.998;2023-04-01T13:23:39;94321.03;;;13.52;100.00
12624;BME280;6377;42.836;23.998;2023-04-01T13:26:16;94194.25;;;12.83;100.00
12624;BME280;6377;42.836;23.998;2023-04-01T13:28:50;94186.66;;;12.86;100.00
12624;BME280;6377;42.836;23.998;2023-04-01T13:31:29;94271.38;;;13.41;100.00
12624;BME280;6377;42.836;23.998;2023-04-01T13:34:19;94166.13;;;12.82;100.00
12624;BME280;6377;42.836;23.998;2023-04-01T13:36:59;94211.78;;;12.84;100.00
12624;BME280;6377;42.836;23.998;2023-04-01T13:39:49;94176.97;;;12.51;100.00
12624;BME280;6377;42.836;23.998;2023-04-01T13:42:26;94155.78;;;12.09;100.00
12624;BME280;6377;42.836;23.998;2023-04-01T13:45:08;94243.28;;;12.80;100.00
12624;BME280;6377;42.836;23.998;2023-04-01T13:48:26;94308.78;;;13.51;100.00
12624;BME280;6377;42.836;23.998;2023-04-01T13:51:16;94271.22;;;13.24;100.00
12624;BME280;6377;42.836;23.998;2023-04-01T13:54:21;94291.34;;;13.43;100.00
12624;BME280;6377;42.836;23.998;2023-04-01T13:56:57;94126.84;;;12.49;100.00
12624;BME280;6377;42.836;23.998;2023-04-01T13:59:49;94227.22;;;13.17;100.00
12624;BME280;6377;42.836;23.998;2023-04-01T14:02:44;94236.38;;;13.44;100.00
12624;BME280;6377;42.836;23.998;2023-04-01T14:05:44;94160.94;;;12.99;100.00
12624;BME280;6377;42.836;23.998;2023-04-01T14:08:25;94183.72;;;13.18;100.00
12624;BME280;6377;42.836;23.998;2023-04-01T14:11:01;94157.75;;;13.31;100.00
12624;BME280;6377;42.836;23.998;2023-04-01T14:13:43;94210.66;;;14.47;100.00
12624;BME280;6377;42.836;23.998;2023-04-01T14:16:26;94140.59;;;14.70;100.00
12624;BME280;6377;42.836;23.998;2023-04-01T14:19:23;94176.88;;;15.43;100.00
12624;BME280;6377;42.836;23.998;2023-04-01T14:21:58;94111.41;;;15.63;100.00
12624;BME280;6377;42.836;23.998;2023-04-01T14:24:49;94110.16;;;15.71;100.00
12624;BME280;6377;42.836;23.998;2023-04-01T14:27:41;94128.63;;;16.48;100.00
12624;BME280;6377;42.836;23.998;2023-04-01T14:30:36;94135.69;;;16.86;100.00
12624;BME280;6377;42.836;23.998;2023-04-01T14:33:17;94122.88;;;17.19;100.00
12624;BME280;6377;42.836;23.998;2023-04-01T14:36:00;94151.50;;;16.92;100.00
12624;BME280;6377;42.836;23.998;2023-04-01T14:38:46;94139.28;;;17.01;100.00
12624;BME280;6377;42.836;23.998;2023-04-01T14:41:24;94088.13;;;16.83;100.00
12624;BME280;6377;42.836;23.998;2023-04-01T14:44:31;94153.78;;;17.47;100.00
12624;BME280;6377;42.836;23.998;2023-04-01T14:47:29;94153.91;;;17.62;100.00
12624;BME280;6377;42.836;23.998;2023-04-01T14:50:06;94125.00;;;17.54;100.00
12624;BME280;6377;42.836;23.998;2023-04-01T14:52:38;94072.97;;;17.30;100.00
12624;BME280;6377;42.836;23.998;2023-04-01T14:55:31;94084.25;;;17.37;100.00
12624;BME280;6377;42.836;23.998;2023-04-01T14:58:08;94080.78;;;17.36;97.50
12624;BME280;6377;42.836;23.998;2023-04-01T15:00:55;94108.88;;;17.44;96.29
12624;BME280;6377;42.836;23.998;2023-04-01T15:03:30;94126.34;;;17.57;97.18
12624;BME280;6377;42.836;23.998;2023-04-01T15:06:33;94115.81;;;17.45;92.80
12624;BME280;6377;42.836;23.998;2023-04-01T15:09:07;93981.00;;;16.74;88.30
12624;BME280;6377;42.836;23.998;2023-04-01T15:11:49;94043.06;;;16.91;100.00
12624;BME280;6377;42.836;23.998;2023-04-01T15:14:34;93949.84;;;16.16;81.26
12624;BME280;6377;42.836;23.998;2023-04-01T15:20:21;94070.13;;;15.88;88.74
12624;BME280;6377;42.836;23.998;2023-04-01T15:23:02;94090.28;;;15.79;89.62
12624;BME280;6377;42.836;23.998;2023-04-01T15:25:45;93981.66;;;14.66;93.20
12624;BME280;6377;42.836;23.998;2023-04-01T15:28:27;94142.25;;;15.59;90.34
12624;BME280;6377;42.836;23.998;2023-04-01T15:31:05;94120.44;;;15.46;91.57
12624;BME280;6377;42.836;23.998;2023-04-01T15:33:52;94068.31;;;15.11;91.42
12624;BME280;6377;42.836;23.998;2023-04-01T15:36:34;94142.41;;;15.53;88.06
12624;BME280;6377;42.836;23.998;2023-04-01T15:39:12;94171.88;;;15.63;89.97
12624;BME280;6377;42.836;23.998;2023-04-01T15:41:56;94069.22;;;14.84;91.47
12624;BME280;6377;42.836;23.998;2023-04-01T15:44:55;94166.41;;;15.36;88.45
12624;BME280;6377;42.836;23.998;2023-04-01T15:47:38;94128.25;;;14.97;94.42
12624;BME280;6377;42.836;23.998;2023-04-01T15:50:28;94186.03;;;15.13;94.33
12624;BME280;6377;42.836;23.998;2023-04-01T15:53:09;94102.34;;;14.43;99.99
12624;BME280;6377;42.836;23.998;2023-04-01T15:55:48;94175.19;;;14.70;97.19
12624;BME280;6377;42.836;23.998;2023-04-01T15:58:35;94055.44;;;13.80;94.12
12624;BME280;6377;42.836;23.998;2023-04-01T16:01:15;94152.78;;;14.38;92.59
12624;BME280;6377;42.836;23.998;2023-04-01T16:03:52;94119.28;;;14.25;100.00
12624;BME280;6377;42.836;23.998;2023-04-01T16:06:40;94194.72;;;14.76;100.00
12624;BME280;6377;42.836;23.998;2023-04-01T16:09:29;94204.81;;;14.62;100.00
12624;BME280;6377;42.836;23.998;2023-04-01T16:12:09;94170.06;;;14.12;100.00
12624;BME280;6377;42.836;23.998;2023-04-01T16:14:44;94149.81;;;14.23;100.00
12624;BME280;6377;42.836;23.998;2023-04-01T16:17:36;94142.09;;;14.10;100.00
12624;BME280;6377;42.836;23.998;2023-04-01T16:20:18;94141.47;;;14.02;100.00
12624;BME280;6377;42.836;23.998;2023-04-01T16:22:50;94069.47;;;13.64;100.00
12624;BME280;6377;42.836;23.998;2023-04-01T16:25:31;93930.38;;;12.74;100.00
12624;BME280;6377;42.836;23.998;2023-04-01T16:28:13;94083.06;;;13.28;100.00
12624;BME280;6377;42.836;23.998;2023-04-01T16:30:48;94136.59;;;13.48;100.00
12624;BME280;6377;42.836;23.998;2023-04-01T16:33:34;94057.19;;;12.54;100.00
12624;BME280;6377;42.836;23.998;2023-04-01T16:36:10;94298.84;;;13.46;100.00
12624;BME280;6377;42.836;23.998;2023-04-01T16:38:43;94390.94;;;13.05;100.00
12624;BME280;6377;42.836;23.998;2023-04-01T16:41:20;94356.00;;;11.80;100.00
12624;BME280;6377;42.836;23.998;2023-04-01T16:43:52;94385.31;;;11.54;100.00
12624;BME280;6377;42.836;23.998;2023-04-01T16:46:29;94388.19;;;11.53;100.00
12624;BME280;6377;42.836;23.998;2023-04-01T16:49:02;94202.25;;;10.27;100.00
12624;BME280;6377;42.836;23.998;2023-04-01T16:51:40;94243.69;;;10.33;100.00
12624;BME280;6377;42.836;23.998;2023-04-01T16:54:17;94325.19;;;10.74;100.00
12624;BME280;6377;42.836;23.998;2023-04-01T16:56:50;94278.88;;;10.27;100.00
12624;BME280;6377;42.836;23.998;2023-04-01T16:59:35;94245.38;;;10.21;100.00
12624;BME280;6377;42.836;23.998;2023-04-01T17:02:11;94353.34;;;10.93;100.00
12624;BME280;6377;42.836;23.998;2023-04-01T17:04:44;94294.31;;;10.68;100.00
12624;BME280;6377;42.836;23.998;2023-04-01T17:07:23;94285.56;;;10.67;100.00
12624;BME280;6377;42.836;23.998;2023-04-01T17:10:21;94328.31;;;10.96;100.00
12624;BME280;6377;42.836;23.998;2023-04-01T17:12:59;94355.50;;;11.09;100.00
12624;BME280;6377;42.836;23.998;2023-04-01T17:15:34;94335.56;;;11.07;100.00
12624;BME280;6377;42.836;23.998;2023-04-01T17:18:11;94339.44;;;11.04;100.00
12624;BME280;6377;42.836;23.998;2023-04-01T17:20:43;94367.69;;;11.10;100.00
12624;BME280;6377;42.836;23.998;2023-04-01T17:23:20;94405.53;;;11.49;100.00
12624;BME280;6377;42.836;23.998;2023-04-01T17:28:48;94392.50;;;11.16;100.00
12624;BME280;6377;42.836;23.998;2023-04-01T17:31:37;94389.38;;;10.94;100.00
12624;BME280;6377;42.836;23.998;2023-04-01T17:34:27;94406.84;;;10.95;100.00
12624;BME280;6377;42.836;23.998;2023-04-01T17:37:09;94403.19;;;10.96;100.00
12624;BME280;6377;42.836;23.998;2023-04-01T17:39:49;94292.59;;;10.42;100.00
12624;BME280;6377;42.836;23.998;2023-04-01T17:42:31;94356.97;;;10.67;100.00
12624;BME280;6377;42.836;23.998;2023-04-01T17:45:16;94409.19;;;11.16;100.00
12624;BME280;6377;42.836;23.998;2023-04-01T17:47:55;94218.31;;;9.68;100.00
12624;BME280;6377;42.836;23.998;2023-04-01T17:50:49;94404.44;;;10.36;100.00
12624;BME280;6377;42.836;23.998;2023-04-01T17:53:26;94471.13;;;10.38;100.00
12624;BME280;6377;42.836;23.998;2023-04-01T17:56:09;94449.81;;;10.33;100.00
12624;BME280;6377;42.836;23.998;2023-04-01T17:58:45;94234.84;;;8.65;100.00
12624;BME280;6377;42.836;23.998;2023-04-01T18:01:36;94341.16;;;9.57;100.00
12624;BME280;6377;42.836;23.998;2023-04-01T18:04:49;94440.88;;;10.21;100.00
12624;BME280;6377;42.836;23.998;2023-04-01T18:07:42;94440.84;;;10.08;100.00
12624;BME280;6377;42.836;23.998;2023-04-01T18:11:08;94196.72;;;8.35;100.00
12624;BME280;6377;42.836;23.998;2023-04-01T18:13:40;94350.72;;;9.13;100.00
12624;BME280;6377;42.836;23.998;2023-04-01T18:16:24;94434.78;;;9.94;100.00
12624;BME280;6377;42.836;23.998;2023-04-01T18:19:09;94252.91;;;8.68;100.00
12624;BME280;6377;42.836;23.998;2023-04-01T18:21:46;94249.22;;;8.50;100.00
12624;BME280;6377;42.836;23.998;2023-04-01T18:24:28;94459.16;;;9.83;100.00
12624;BME280;6377;42.836;23.998;2023-04-01T18:27:15;94326.09;;;8.73;100.00
12624;BME280;6377;42.836;23.998;2023-04-01T18:29:48;94243.31;;;8.34;100.00
12624;BME280;6377;42.836;23.998;2023-04-01T18:32:27;94462.56;;;9.57;100.00
12624;BME280;6377;42.836;23.998;2023-04-01T18:35:17;94463.81;;;9.68;100.00
12624;BME280;6377;42.836;23.998;2023-04-01T18:37:54;94284.84;;;8.32;100.00
12624;BME280;6377;42.836;23.998;2023-04-01T18:40:29;94494.47;;;9.69;100.00
12624;BME280;6377;42.836;23.998;2023-04-01T18:43:10;94319.13;;;8.39;100.00
12624;BME280;6377;42.836;23.998;2023-04-01T18:45:44;94366.59;;;8.59;100.00
12624;BME280;6377;42.836;23.998;2023-04-01T18:48:33;94357.09;;;8.64;100.00
12624;BME280;6377;42.836;23.998;2023-04-01T18:51:14;94470.47;;;9.38;100.00
12624;BME280;6377;42.836;23.998;2023-04-01T18:53:49;94389.31;;;8.66;100.00
12624;BME280;6377;42.836;23.998;2023-04-01T18:56:29;94414.56;;;8.88;100.00
12624;BME280;6377;42.836;23.998;2023-04-01T18:59:08;94488.22;;;9.03;100.00
12624;BME280;6377;42.836;23.998;2023-04-01T19:01:49;94303.09;;;7.93;100.00
12624;BME280;6377;42.836;23.998;2023-04-01T19:04:24;94563.19;;;9.28;100.00
12624;BME280;6377;42.836;23.998;2023-04-01T19:10:13;94516.38;;;8.96;100.00
12624;BME280;6377;42.836;23.998;2023-04-01T19:12:47;94557.47;;;9.25;100.00
12624;BME280;6377;42.836;23.998;2023-04-01T19:15:34;94497.97;;;9.02;100.00
12624;BME280;6377;42.836;23.998;2023-04-01T19:18:35;94527.03;;;9.22;100.00
12624;BME280;6377;42.836;23.998;2023-04-01T19:21:14;94562.91;;;9.64;100.00
12624;BME280;6377;42.836;23.998;2023-04-01T19:24:20;94564.97;;;9.69;100.00
12624;BME280;6377;42.836;23.998;2023-04-01T19:27:03;94486.56;;;8.89;100.00
12624;BME280;6377;42.836;23.998;2023-04-01T19:29:46;94445.13;;;8.76;100.00
12624;BME280;6377;42.836;23.998;2023-04-01T19:32:33;94589.13;;;9.66;100.00
12624;BME280;6377;42.836;23.998;2023-04-01T19:35:19;94492.72;;;9.09;100.00
12624;BME280;6377;42.836;23.998;2023-04-01T19:37:53;94483.25;;;8.74;100.00
12624;BME280;6377;42.836;23.998;2023-04-01T19:40:35;94485.53;;;8.83;100.00
12624;BME280;6377;42.836;23.998;2023-04-01T19:43:16;94531.31;;;9.23;100.00
12624;BME280;6377;42.836;23.998;2023-04-01T19:45:49;94501.41;;;9.03;100.00
12624;BME280;6377;42.836;23.998;2023-04-01T19:48:33;94590.47;;;9.55;100.00
12624;BME280;6377;42.836;23.998;2023-04-01T19:51:07;94393.41;;;8.28;100.00
12624;BME280;6377;42.836;23.998;2023-04-01T19:53:46;94506.88;;;8.95;100.00
12624;BME280;6377;42.836;23.998;2023-04-01T19:56:21;94507.13;;;9.07;100.00
12624;BME280;6377;42.836;23.998;2023-04-01T19:58:54;94458.19;;;8.50;100.00
12624;BME280;6377;42.836;23.998;2023-04-01T20:01:28;94484.69;;;8.42;100.00
12624;BME280;6377;42.836;23.998;2023-04-01T20:04:07;94529.47;;;8.76;100.00
12624;BME280;6377;42.836;23.998;2023-04-01T20:06:44;94430.63;;;8.18;100.00
12624;BME280;6377;42.836;23.998;2023-04-01T20:09:47;94411.22;;;7.92;100.00
12624;BME280;6377;42.836;23.998;2023-04-01T20:12:26;94530.69;;;8.74;100.00
12624;BME280;6377;42.836;23.998;2023-04-01T20:15:02;94617.38;;;9.31;100.00
12624;BME280;6377;42.836;23.998;2023-04-01T20:17:33;94557.88;;;8.81;100.00
12624;BME280;6377;42.836;23.998;2023-04-01T20:20:19;94526.03;;;8.76;100.00
12624;BME280;6377;42.836;23.998;2023-04-01T20:23:19;94621.03;;;9.30;100.00
12624;BME280;6377;42.836;23.998;2023-04-01T20:25:55;94523.06;;;8.51;100.00
12624;BME280;6377;42.836;23.998;2023-04-01T20:28:38;94418.88;;;7.86;100.00
12624;BME280;6377;42.836;23.998;2023-04-01T20:31:26;94474.16;;;8.14;100.00
12624;BME280;6377;42.836;23.998;2023-04-01T20:34:19;94523.06;;;8.51;100.00
12624;BME280;6377;42.836;23.998;2023-04-01T20:37:05;94424.66;;;7.75;100.00
12624;BME280;6377;42.836;23.998;2023-04-01T20:40:20;94409.72;;;7.55;100.00
12624;BME280;6377;42.836;23.998;2023-04-01T20:43:49;94607.19;;;8.80;100.00
12624;BME280;6377;42.836;23.998;2023-04-01T20:46:30;94571.06;;;8.47;100.00
12624;BME280;6377;42.836;23.998;2023-04-01T20:49:38;94640.97;;;9.05;100.00
12624;BME280;6377;42.836;23.998;2023-04-01T20:52:53;94599.50;;;8.85;100.00
12624;BME280;6377;42.836;23.998;2023-04-01T20:59:15;94436.13;;;7.89;100.00
12624;BME280;6377;42.836;23.998;2023-04-01T21:02:10;94489.41;;;8.25;100.00
12624;BME280;6377;42.836;23.998;2023-04-01T21:05:09;94558.97;;;8.86;100.00
12624;BME280;6377;42.836;23.998;2023-04-01T21:11:18;94567.59;;;8.74;100.00
12624;BME280;6377;42.836;23.998;2023-04-01T21:14:11;94580.88;;;8.93;100.00
12624;BME280;6377;42.836;23.998;2023-04-01T21:17:02;94505.41;;;8.52;100.00
12624;BME280;6377;42.836;23.998;2023-04-01T21:20:04;94477.59;;;7.87;100.00
12624;BME280;6377;42.836;23.998;2023-04-01T21:22:58;94520.84;;;8.55;100.00
12624;BME280;6377;42.836;23.998;2023-04-01T21:25:51;94542.56;;;8.63;100.00
12624;BME280;6377;42.836;23.998;2023-04-01T21:28:38;94454.47;;;8.10;100.00
12624;BME280;6377;42.836;23.998;2023-04-01T21:31:31;94643.59;;;9.32;100.00
12624;BME280;6377;42.836;23.998;2023-04-01T21:34:42;94481.66;;;8.17;100.00
